• Join FlightAware (Why Join?)
  • Login
  • US Flag 
12:55PM EDT


 

Airport Tracker/Info


-or-


 

Live Flight TrackerFlight Track Log ✈ SWA407 ✈ 28-Apr-2013 ✈ KATL - KSFO

Flight Track Log - Related Links

Times and Time Zones

All times are in EDT time to prevent confusion due to time zone crossing. See the SWA407 flight status page for this flight to view local times or setup timezone preferences in your user account.

Time Position Orientation Groundspeed Altitude Reporting Facility
EDT Latitude Longitude Course Direction KTS MPH feet Rate Location/Type
07:05PM 33.6667 -84.3333 51° Northeast 216 249 3,400  Level Atlanta TRACON
07:06PM 33.7000 -84.2833 51° Northeast 284 327 5,600 2,580 Climbing Atlanta TRACON
07:07PM 33.7833 -84.2833 360° North 295 339 8,600 2,460 Climbing Atlanta TRACON
07:09PM 33.8081 -84.5139 277° West 318 366 13,700 2,280 Climbing Atlanta Center
07:10PM 33.8136 -84.6339 273° West 346 398 16,200 2,340 Climbing Atlanta Center
07:11PM 33.8108 -84.7539 268° West 351 404 18,400 2,100 Climbing Atlanta Center
07:12PM 33.8061 -84.8714 267° West 379 436 20,400 2,040 Climbing Atlanta Center
07:13PM 33.7967 -84.9961 265° West 394 453 22,500 1,920 Climbing Atlanta Center
07:14PM 33.7789 -85.1311 261° West 399 459 24,300 1,800 Climbing Atlanta Center
07:15PM 33.7736 -85.2633 267° West 399 459 26,200 1,740 Climbing Atlanta Center
07:16PM 33.7969 -85.4136 281° West 405 466 27,800 1,620 Climbing Atlanta Center
07:17PM 33.8225 -85.5517 283° West 413 475 29,500 1,560 Climbing Atlanta Center
07:18PM 33.8500 -85.6847 284° West 413 475 31,000 1,380 Climbing Atlanta Center
07:19PM 33.8900 -85.8106 291° West 418 481 32,300 1,320 Climbing Atlanta Center
07:20PM 33.9339 -85.9442 292° West 418 481 33,700 1,500 Climbing Atlanta Center
07:21PM 33.9758 -86.0753 291° West 418 481 35,300 1,140 Climbing Atlanta Center
07:22PM 34.0131 -86.2067 289° West 418 481 36,000 300 Climbing Atlanta Center
07:23PM 34.0483 -86.3353 288° West 418 481 36,000  Level Atlanta Center
07:24PM 34.0856 -86.4667 289° West 413 475 36,000  Level Atlanta Center
07:26PM 34.1433 -86.6831 288° West 430 495 36,000  Level Memphis Center
07:27PM 34.1825 -86.8144 290° West 423 487 36,000  Level Memphis Center
07:28PM 34.2156 -86.9486 287° West 418 481 36,000  Level Memphis Center
07:29PM 34.2525 -87.0806 289° West 419 482 36,000  Level Memphis Center
07:30PM 34.2914 -87.2147 289° West 417 480 36,000  Level Memphis Center
07:31PM 34.3236 -87.3317 288° West 401 461 36,000  Level Memphis Center
07:32PM 34.3600 -87.4636 289° West 407 468 36,000  Level Memphis Center
07:33PM 34.3986 -87.5983 289° West 417 480 36,000  Level Memphis Center
07:34PM 34.4328 -87.7308 287° West 417 480 36,000  Level Memphis Center
07:35PM 34.4667 -87.8481 289° West 417 480 36,000  Level Memphis Center
07:36PM 34.5006 -87.9831 287° West 417 480 36,000  Level Memphis Center
07:37PM 34.5364 -88.1133 288° West 417 480 36,000  Level Memphis Center
07:38PM 34.5722 -88.2536 287° West 418 481 36,000  Level Memphis Center
07:39PM 34.6078 -88.3864 288° West 424 488 36,000  Level Memphis Center
07:40PM 34.6408 -88.5119 288° West 412 474 36,000  Level Memphis Center
07:41PM 34.6742 -88.6450 287° West 412 474 36,000  Level Memphis Center
07:42PM 34.7136 -88.7908 288° West 412 474 36,000  Level Memphis Center
07:43PM 34.7486 -88.9239 288° West 417 480 36,000  Level Memphis Center
07:44PM 34.7836 -89.0600 287° West 422 486 36,000  Level Memphis Center
07:45PM 34.8183 -89.1936 288° West 422 486 36,000  Level Memphis Center
07:46PM 34.8550 -89.3272 289° West 415 478 36,000  Level Memphis Center
07:47PM 34.9225 -89.4478 304° West 422 486 36,000  Level Memphis Center
07:48PM 34.9944 -89.5661 307° West 435 501 36,000  Level Memphis Center
07:49PM 35.0847 -89.6694 317° Northwest 441 507 36,000  Level Memphis Center
07:50PM 35.1728 -89.7728 316° Northwest 436 502 36,000  Level Memphis Center
07:51PM 35.2608 -89.8714 318° Northwest 436 502 36,000  Level Memphis Center
07:52PM 35.3489 -89.9700 318° Northwest 428 493 36,000  Level Memphis Center
07:53PM 35.4389 -90.0692 318° Northwest 422 486 36,000  Level Memphis Center
07:54PM 35.4975 -90.1886 301° West 417 480 36,000  Level Memphis Center
07:55PM 35.5267 -90.3289 284° West 418 481 36,000  Level Memphis Center
07:56PM 35.5581 -90.4667 286° West 418 481 36,000  Level Memphis Center
07:57PM 35.5892 -90.6047 286° West 424 488 36,000  Level Memphis Center
07:58PM 35.6158 -90.7300 285° West 424 488 36,000  Level Memphis Center
07:59PM 35.6447 -90.8681 284° West 424 488 36,000  Level Memphis Center
08:00PM 35.6753 -91.0086 285° West 424 488 36,000  Level Memphis Center
08:01PM 35.7036 -91.1597 283° West 417 480 36,000  Level Memphis Center
08:02PM 35.7297 -91.2956 283° West 412 474 36,000  Level Memphis Center
08:03PM 35.7622 -91.4214 288° West 417 480 36,000  Level Memphis Center
08:04PM 35.7900 -91.5625 284° West 417 480 36,000  Level Memphis Center
08:05PM 35.8200 -91.7036 285° West 417 480 36,000  Level Memphis Center
08:06PM 35.8494 -91.8450 284° West 417 480 36,000  Level Memphis Center
08:07PM 35.8792 -91.9864 285° West 422 486 36,000  Level Memphis Center
08:08PM 35.9083 -92.1306 284° West 427 491 36,000  Level Memphis Center
08:09PM 35.9375 -92.2694 285° West 427 491 36,000  Level Memphis Center
08:10PM 35.9667 -92.4139 284° West 427 491 36,000  Level Memphis Center
08:11PM 35.9956 -92.5556 284° West 427 491 36,000  Level Memphis Center
08:12PM 36.0242 -92.7003 284° West 432 497 36,000  Level Memphis Center
08:13PM 36.0506 -92.8422 283° West 432 497 36,000  Level Memphis Center
08:14PM 36.0811 -92.9817 285° West 432 497 36,000  Level Memphis Center
08:15PM 36.1069 -93.1342 282° West 439 505 36,000  Level Memphis Center
08:16PM 36.1350 -93.2789 284° West 432 497 36,000  Level Memphis Center
08:17PM 36.1628 -93.4214 284° West 432 497 36,000  Level Memphis Center
08:18PM 36.1925 -93.5692 284° West 437 503 36,000  Level Memphis Center
08:19PM 36.2194 -93.7297 282° West 432 497 36,000  Level Memphis Center
08:20PM 36.2467 -93.8747 283° West 432 497 36,000  Level Memphis Center
08:23PM 36.3175 -94.2289 284° West 439 505 36,000  Level Kansas City Center
08:24PM 36.3453 -94.3769 283° West 439 505 36,000  Level Kansas City Center
08:25PM 36.3725 -94.5236 283° West 438 504 36,000  Level Kansas City Center
08:26PM 36.4036 -94.7000 282° West 436 502 36,000  Level Kansas City Center
08:27PM 36.4294 -94.8464 282° West 435 501 36,000 420 Level Kansas City Center
08:28PM 36.4564 -94.9933 283° West 436 502 36,900 960 Climbing Kansas City Center
08:29PM 36.4850 -95.1544 283° West 436 502 38,000 480 Climbing Kansas City Center
08:30PM 36.5108 -95.3000 282° West 434 499 38,000  Level Kansas City Center
08:31PM 36.5372 -95.4472 283° West 436 502 38,000  Level Kansas City Center
08:32PM 36.5622 -95.5939 282° West 437 503 38,000  Level Kansas City Center
08:33PM 36.5875 -95.7406 282° West 436 502 38,000  Level Kansas City Center
08:34PM 36.6142 -95.8958 282° West 436 502 38,000  Level Kansas City Center
08:35PM 36.6386 -96.0406 282° West 432 497 38,000  Level Kansas City Center
08:36PM 36.6686 -96.2183 282° West 435 501 38,000  Level Kansas City Center
08:37PM 36.6931 -96.3658 282° West 435 501 38,000  Level Kansas City Center
08:38PM 36.7178 -96.5131 282° West 434 499 38,000  Level Kansas City Center
08:39PM 36.7419 -96.6594 282° West 433 498 38,000  Level Kansas City Center
08:40PM 36.7647 -96.8058 281° West 431 496 38,000  Level Kansas City Center
08:41PM 36.7886 -96.9517 282° West 430 495 38,000  Level Kansas City Center
08:42PM 36.8147 -97.1122 282° West 428 493 38,000  Level Kansas City Center
08:43PM 36.8372 -97.2553 281° West 426 490 38,000  Level Kansas City Center
08:44PM 36.8594 -97.4042 281° West 427 491 38,000  Level Kansas City Center
08:45PM 36.8817 -97.5519 281° West 430 495 38,000  Level Kansas City Center
08:46PM 36.9042 -97.6953 281° West 426 490 38,000  Level Kansas City Center
08:47PM 36.9258 -97.8378 281° West 420 483 38,000  Level Kansas City Center
08:48PM 36.9519 -98.0117 281° West 422 486 38,000  Level Kansas City Center
08:49PM 36.9744 -98.1581 281° West 425 489 38,000  Level Kansas City Center
08:50PM 36.9956 -98.3042 280° West 426 490 38,000  Level Kansas City Center
08:51PM 37.0197 -98.4636 281° West 428 493 38,000  Level Kansas City Center
08:52PM 37.0414 -98.6119 280° West 430 495 38,000  Level Kansas City Center
08:54PM 37.0628 -98.7578 280° West 428 493 38,000  Level Kansas City Center
08:55PM 37.0814 -98.8911 280° West 425 489 38,000  Level Kansas City Center
08:56PM 37.1017 -99.0367 280° West 424 488 38,000  Level Kansas City Center
08:57PM 37.1231 -99.1908 280° West 422 486 38,000  Level Kansas City Center
08:58PM 37.1442 -99.3386 280° West 426 490 38,000  Level Kansas City Center
08:59PM 37.1683 -99.5122 280° West 427 491 38,000  Level Kansas City Center
09:00PM 37.1875 -99.6531 280° West 429 494 38,000  Level Kansas City Center
09:01PM 37.2064 -99.7956 279° West 431 496 38,000  Level Kansas City Center
09:02PM 37.2283 -99.9606 280° West 430 495 38,000  Level Kansas City Center
09:03PM 37.2478 -100.1022 280° West 430 495 38,000  Level Kansas City Center
09:04PM 37.2694 -100.2658 279° West 428 493 38,000  Level Kansas City Center
09:05PM 37.2881 -100.4072 279° West 427 491 38,000  Level Kansas City Center
09:06PM 37.3092 -100.5706 279° West 424 488 38,000  Level Kansas City Center
09:07PM 37.3275 -100.7100 279° West 422 486 38,000  Level Kansas City Center
09:08PM 37.3450 -100.8511 279° West 423 487 38,000  Level Kansas City Center
09:09PM 37.3650 -101.0169 279° West 425 489 38,000  Level Kansas City Center
09:10PM 37.3828 -101.1592 279° West 427 491 38,000  Level Kansas City Center
09:11PM 37.4003 -101.3003 279° West 426 490 38,000  Level Kansas City Center
09:12PM 37.4194 -101.4639 278° West 423 487 38,000  Level Kansas City Center
09:13PM 37.4367 -101.6039 279° West 423 487 38,000  Level Kansas City Center
09:14PM 37.4561 -101.7658 279° West 420 483 38,000  Level Kansas City Center
09:15PM 37.4717 -101.9025 278° West 416 479 38,000  Level Kansas City Center
09:16PM 37.4808 -101.9725 279° West 415 478 38,000  Level Denver Center
09:17PM 37.5061 -102.2006 278° West 415 478 38,000  Level Kansas City Center
09:18PM 37.5153 -102.2706 279° West 415 478 38,000  Level Denver Center
09:19PM 37.5300 -102.4092 278° West 417 480 38,000  Level Denver Center
09:20PM 37.5464 -102.5506 278° West 418 481 38,000  Level Denver Center
09:21PM 37.5633 -102.7131 278° West 419 482 38,000  Level Denver Center
09:22PM 37.5789 -102.8514 278° West 418 481 38,000  Level Denver Center
09:23PM 37.5964 -103.0147 278° West 419 482 38,000  Level Denver Center
09:24PM 37.6311 -103.1478 288° West 416 479 38,000  Level Denver Center
09:25PM 37.6719 -103.3028 288° West 418 481 38,000  Level Denver Center
09:26PM 37.7064 -103.4356 288° West 417 480 38,000  Level Denver Center
09:27PM 37.7486 -103.5878 289° West 414 476 38,000  Level Denver Center
09:28PM 37.7853 -103.7172 290° West 412 474 38,000  Level Denver Center
09:29PM 37.8217 -103.8475 290° West 413 475 38,000  Level Denver Center
09:30PM 37.8644 -104.0000 290° West 416 479 38,000  Level Denver Center
09:31PM 37.9067 -104.1531 289° West 417 480 38,000  Level Denver Center
09:32PM 37.9442 -104.2856 290° West 419 482 38,000  Level Denver Center
09:33PM 37.9847 -104.4392 289° West 414 476 38,000  Level Denver Center
09:34PM 37.9947 -104.5767 275° West 411 473 38,000  Level Denver Center
09:35PM 38.0050 -104.7139 275° West 408 470 38,000  Level Denver Center
09:36PM 38.0158 -104.8761 275° West 414 476 38,000  Level Denver Center
09:37PM 38.0244 -105.0167 274° West 417 480 38,000  Level Denver Center
09:38PM 38.0353 -105.1825 275° West 423 487 38,000  Level Denver Center
09:39PM 38.0444 -105.3211 275° West 416 479 38,000  Level Denver Center
09:40PM 38.0528 -105.4856 274° West 416 479 38,000  Level Denver Center
09:41PM 38.0617 -105.6247 275° West 416 479 38,000  Level Denver Center
09:42PM 38.0708 -105.7869 274° West 415 478 38,000  Level Denver Center
09:43PM 38.0783 -105.9264 274° West 414 476 38,000  Level Denver Center
09:44PM 38.0867 -106.0667 274° West 417 480 38,000  Level Denver Center
09:45PM 38.0956 -106.2289 274° West 419 482 38,000  Level Denver Center
09:46PM 38.1028 -106.3733 274° West 412 474 38,000  Level Denver Center
09:47PM 38.1108 -106.5289 274° West 410 472 38,000  Level Denver Center
09:48PM 38.1178 -106.6686 274° West 412 474 38,000  Level Denver Center
09:50PM 38.1267 -106.8314 274° West 413 475 38,000  Level Denver Center
09:51PM 38.1311 -106.9592 273° West 420 483 38,000  Level Denver Center
09:52PM 38.1400 -107.1356 274° West 417 480 38,000  Level Denver Center
09:53PM 38.1467 -107.2775 273° West 416 479 38,000  Level Denver Center
09:54PM 38.1539 -107.4400 273° West 413 475 38,000  Level Denver Center
09:55PM 38.1597 -107.5800 273° West 414 476 38,000  Level Denver Center
09:56PM 38.1653 -107.7194 273° West 414 476 38,000  Level Denver Center
09:57PM 38.1722 -107.8828 273° West 414 476 38,000  Level Denver Center
09:58PM 38.1775 -108.0239 273° West 416 479 38,000  Level Denver Center
09:59PM 38.1839 -108.1878 273° West 416 479 38,000  Level Denver Center
10:00PM 38.1886 -108.3283 272° West 415 478 38,000  Level Denver Center
10:01PM 38.1944 -108.4942 273° West 419 482 38,000  Level Denver Center
10:02PM 38.1992 -108.6328 273° West 412 474 38,000  Level Denver Center
10:03PM 38.2036 -108.7761 272° West 420 483 38,000  Level Denver Center
10:04PM 38.2094 -108.9389 273° West 414 476 38,000  Level Denver Center
10:05PM 38.2142 -109.0797 272° West 415 478 38,000  Level Denver Center
10:06PM 38.2181 -109.2422 272° West 412 474 38,000  Level Denver Center
10:07PM 38.2217 -109.3828 272° West 412 474 38,000  Level Denver Center
10:08PM 38.2261 -109.5478 272° West 417 480 38,000  Level Denver Center
10:09PM 38.2294 -109.6869 272° West 413 475 38,000  Level Denver Center
10:10PM 38.2342 -109.8253 273° West 410 472 38,000  Level Denver Center
10:11PM 38.2364 -109.9878 271° West 411 473 38,000  Level Denver Center
10:12PM 38.2392 -110.1256 272° West 408 470 38,000  Level Denver Center
10:13PM 38.2433 -110.2867 272° West 407 468 38,000  Level Denver Center
10:14PM 38.2453 -110.4250 271° West 408 470 38,000  Level Denver Center
10:15PM 38.2500 -110.5881 272° West 412 474 38,000  Level Denver Center
10:16PM 38.2514 -110.6817 271° West 412 474 38,000  Level Salt Lake Center
10:17PM 38.2536 -110.8228 271° West 415 478 38,000  Level Salt Lake Center
10:18PM 38.2558 -110.9619 271° West 418 481 38,000  Level Salt Lake Center
10:19PM 38.2572 -111.1392 271° West 419 482 38,000  Level Salt Lake Center
10:20PM 38.2589 -111.2881 271° West 422 486 38,000  Level Salt Lake Center
10:21PM 38.2603 -111.4353 271° West 420 483 38,000  Level Salt Lake Center
10:22PM 38.2614 -111.5814 271° West 415 478 38,000  Level Salt Lake Center
10:23PM 38.2633 -111.7269 271° West 414 476 38,000  Level Salt Lake Center
10:24PM 38.2642 -111.8717 270° West 411 473 38,000  Level Salt Lake Center
10:25PM 38.2653 -112.0169 271° West 412 474 38,000  Level Salt Lake Center
10:26PM 38.2653 -112.1619 270° West 412 474 38,000  Level Salt Lake Center
10:27PM 38.2658 -112.3358 270° West 412 474 38,000  Level Salt Lake Center
10:28PM 38.2658 -112.4811 270° West 413 475 38,000  Level Salt Lake Center
10:29PM 38.2653 -112.6244 270° West 409 471 38,000  Level Salt Lake Center
10:30PM 38.2650 -112.7681 270° West 409 471 38,000  Level Salt Lake Center
10:31PM 38.2650 -112.9106 270° West 407 468 38,000  Level Salt Lake Center
10:32PM 38.2644 -113.0544 270° West 409 471 38,000  Level Salt Lake Center
10:33PM 38.2633 -113.1956 269° West 404 465 38,000  Level Salt Lake Center
10:34PM 38.2625 -113.3381 270° West 405 466 38,000  Level Salt Lake Center
10:35PM 38.2611 -113.5111 269° West 408 470 38,000  Level Salt Lake Center
10:36PM 38.2600 -113.6569 269° West 413 475 38,000  Level Salt Lake Center
10:37PM 38.2589 -113.8014 269° West 412 474 38,000  Level Salt Lake Center
10:38PM 38.2564 -113.9475 269° West 414 476 38,000  Level Salt Lake Center
10:39PM 38.2550 -114.0922 269° West 412 474 38,000  Level Salt Lake Center
10:40PM 38.2531 -114.2381 269° West 413 475 38,000  Level Salt Lake Center
10:42PM 38.2494 -114.3833 268° West 413 475 38,000  Level Salt Lake Center
10:43PM 38.2453 -114.5286 268° West 413 475 38,000  Level Salt Lake Center
10:44PM 38.2389 -114.7044 267° West 419 482 38,000  Level Salt Lake Center
10:45PM 38.2336 -114.8500 267° West 415 478 38,000  Level Salt Lake Center
10:46PM 38.2292 -114.9928 268° West 409 471 38,000  Level Salt Lake Center
10:47PM 38.2233 -115.1383 267° West 411 473 38,000  Level Salt Lake Center
10:48PM 38.2167 -115.2844 267° West 414 476 38,000  Level Salt Lake Center
10:49PM 38.2108 -115.4350 267° West 423 487 38,000  Level Salt Lake Center
10:50PM 38.2044 -115.5833 267° West 422 486 38,000  Level Salt Lake Center
10:51PM 38.1981 -115.7303 267° West 418 481 38,000  Level Salt Lake Center
10:52PM 38.1911 -115.8769 267° West 418 481 38,000  Level Salt Lake Center
10:53PM 38.1822 -116.0553 266° West 418 481 38,000  Level Salt Lake Center
10:54PM 38.1753 -116.2039 267° West 420 483 38,000  Level Salt Lake Center
10:55PM 38.1683 -116.3536 267° West 425 489 38,000  Level Salt Lake Center
10:55PM 38.1656 -116.4156 267° West 430 495 38,000  Level Oakland Center
10:56PM 38.1575 -116.5661 266° West 428 493 38,000  Level Oakland Center
10:57PM 38.1497 -116.7181 266° West 431 496 38,000  Level Oakland Center
10:58PM 38.1419 -116.8678 266° West 427 491 38,000  Level Oakland Center
10:59PM 38.1369 -116.9575 266° West 428 493 38,000  Level Salt Lake Center
11:00PM 38.1289 -117.1053 266° West 420 483 38,000  Level Salt Lake Center
11:00PM 38.1267 -117.1597 267° West 420 483 38,000  Level Oakland Center
11:01PM 38.1108 -117.3086 262° West 420 483 38,000  Level Oakland Center
11:02PM 38.0736 -117.4714 254° West 425 489 38,000  Level Oakland Center
11:03PM 38.0397 -117.6144 253° West 424 488 38,000  Level Oakland Center
11:04PM 38.0056 -117.7611 254° West 430 495 38,000  Level Oakland Center
11:05PM 37.9886 -117.9111 262° West 430 495 38,000  Level Oakland Center
11:06PM 37.9722 -118.0622 262° West 431 496 38,000  Level Oakland Center
11:07PM 37.9564 -118.2103 262° West 426 490 38,000  Level Oakland Center
11:08PM 37.9408 -118.3592 262° West 426 490 38,000  Level Oakland Center
11:09PM 37.9239 -118.5086 262° West 427 491 38,000  Level Oakland Center
11:10PM 37.9078 -118.6581 262° West 428 493 38,000  Level Oakland Center
11:11PM 37.8914 -118.8083 262° West 431 496 38,000  Level Oakland Center
11:12PM 37.8697 -118.9906 261° West 435 501 38,000  Level Oakland Center
11:14PM 37.8531 -119.1425 262° West 438 504 38,000 -180 Level Oakland Center
11:15PM 37.8342 -119.2928 261° West 435 501 37,700 -660 Descending Oakland Center
11:16PM 37.8167 -119.4447 262° West 436 502 36,700 -1,200 Descending Oakland Center
11:17PM 37.8033 -119.5917 263° West 426 490 35,300 -1,800 Descending Oakland Center
11:18PM 37.7842 -119.7439 261° West 433 498 33,100 -1,980 Descending Oakland Center
11:19PM 37.7625 -119.9000 260° West 446 513 31,400 -1,380 Descending Oakland Center
11:20PM 37.7433 -120.0542 261° West 443 510 30,300 -1,140 Descending Oakland Center
11:21PM 37.7253 -120.1992 261° West 423 487 29,200 -1,080 Descending Oakland Center
11:22PM 37.7078 -120.3425 261° West 413 475 28,200 -1,020 Descending Oakland Center
11:23PM 37.6892 -120.4819 260° West 405 466 27,200 -1,080 Descending Oakland Center
11:24PM 37.6722 -120.6208 261° West 400 460 26,100 -1,440 Descending Oakland Center
11:24PM 37.6667 -120.7000 265° West 393 452 25,100 -2,100 Descending Northern Cal TRACON
11:25PM 37.6500 -120.8500 262° West 378 435 22,900 -1,920 Descending Northern Cal TRACON
11:26PM 37.6333 -120.9667 260° West 368 423 21,100 -1,920 Descending Northern Cal TRACON
11:27PM 37.6167 -121.1000 261° West 356 410 19,100 -1,920 Descending Northern Cal TRACON
11:28PM 37.6000 -121.2167 260° West 344 396 17,300 -1,800 Descending Northern Cal TRACON
11:29PM 37.5833 -121.3167 258° West 332 382 15,600 -1,740 Descending Northern Cal TRACON
11:30PM 37.5667 -121.4333 260° West 320 368 13,900 -1,740 Descending Northern Cal TRACON
11:31PM 37.5500 -121.5333 258° West 314 361 12,200 -1,440 Descending Northern Cal TRACON
11:32PM 37.5167 -121.6333 247° West 294 338 11,100 -1,140 Descending Northern Cal TRACON
11:33PM 37.5000 -121.7333 258° West 284 327 10,000 -960 Descending Northern Cal TRACON
11:34PM 37.4833 -121.8167 256° West 251 289 9,200 -960 Descending Northern Cal TRACON
11:35PM 37.4667 -121.9000 256° West 248 285 8,000 -840 Descending Northern Cal TRACON
11:36PM 37.4833 -121.9833 284° West 222 255 7,700 -780 Descending Northern Cal TRACON
11:37PM 37.5000 -122.0333 293° West 196 226 6,600 -1,200 Descending Northern Cal TRACON
11:38PM 37.5333 -122.1000 302° West 187 215 5,400 -1,200 Descending Northern Cal TRACON
11:39PM 37.5406 -122.1311 286° West 186 214 4,600 -1,380 Descending Oakland Center
11:40PM 37.5589 -122.1864 293° West 175 201 3,100 -1,320 Descending Oakland Center
11:41PM 37.5750 -122.2406 291° West 171 197 2,000 -1,020 Descending Oakland Center
11:42PM 37.5850 -122.2931 284° West 161 185 1,100 -840 Descending Oakland Center
11:43PM 37.5992 -122.3353 293° West 144 166 400 -720 Descending Oakland Center
11:46PM 37.6167 -122.3667 322° Northwest  Level FlightAware Approximate